Time;durP1;ratioP1;P1;durP2;ratioP2;P2;SDS_P1;SDS_P2;PMS_P1;PMS_P2;Temp;Humidity;BMP_temperature;BMP_pressure;BME280_temperature;BME280_humidity;BME280_pressure;Samples;Min_cycle;Max_cycle;Signal;HPM_P1;HPM_P2
2021/04/17 00:01:39;;;;;;;8.50;6.05;;;;;;;3.34;91.42;100498.23;1619689;87;21281;-83
2021/04/17 00:04:07;;;;;;;7.12;4.65;;;;;;;3.35;91.40;100501.23;1622890;87;21649;-83
2021/04/17 00:06:35;;;;;;;7.62;4.47;;;;;;;3.32;91.46;100495.67;1620631;87;21225;-83
2021/04/17 00:09:10;;;;;;;9.75;5.97;;;;;;;3.33;91.34;100495.25;1622829;87;21156;-83
2021/04/17 00:11:37;;;;;;;11.93;5.47;;;;;;;3.31;91.38;100491.84;1618929;87;21192;-83
2021/04/17 00:14:11;;;;;;;7.97;4.78;;;;;;;3.27;91.29;100491.11;1628666;87;21304;-83
2021/04/17 00:16:37;;;;;;;10.25;4.58;;;;;;;3.26;91.47;100486.36;1585391;87;21716;-83
2021/04/17 00:19:04;;;;;;;8.23;4.80;;;;;;;3.26;91.41;100486.36;1635223;87;21205;-83
2021/04/17 00:21:30;;;;;;;7.10;4.92;;;;;;;3.25;91.39;100483.33;1635705;87;21155;-83
2021/04/17 00:23:56;;;;;;;7.85;4.80;;;;;;;3.24;91.35;100481.64;1631559;87;21167;-83
2021/04/17 00:26:23;;;;;;;7.85;4.92;;;;;;;3.23;91.43;100483.88;1628737;87;21159;-83
2021/04/17 00:28:50;;;;;;;8.38;5.12;;;;;;;3.23;91.43;100484.33;1629504;87;21622;-83
2021/04/17 00:31:15;;;;;;;5.42;4.30;;;;;;;3.21;91.40;100484.83;1610997;87;21159;-83
2021/04/17 00:33:41;;;;;;;9.23;5.00;;;;;;;3.23;91.59;100489.55;1627211;87;21582;-83
2021/04/17 00:36:07;;;;;;;13.18;5.15;;;;;;;3.23;91.60;100489.09;1627052;87;21119;-83
2021/04/17 00:38:33;;;;;;;12.98;6.08;;;;;;;3.22;91.47;100482.15;1592383;87;21167;-83
2021/04/17 00:40:59;;;;;;;9.63;5.97;;;;;;;3.21;91.52;100479.62;1628821;87;21568;-83
2021/04/17 00:43:26;;;;;;;10.60;5.90;;;;;;;3.19;91.58;100480.13;1625069;87;21163;-83
2021/04/17 00:45:53;;;;;;;10.78;6.58;;;;;;;3.17;91.56;100480.20;1602383;89;21350;-83
2021/04/17 00:48:19;;;;;;;10.75;6.08;;;;;;;3.16;91.64;100485.03;1602605;89;21180;-83
2021/04/17 00:50:48;;;;;;;11.57;7.40;;;;;;;3.15;91.59;100485.07;1638376;87;21719;-84
2021/04/17 00:53:14;;;;;;;13.03;6.92;;;;;;;3.15;91.69;100488.98;1638996;87;21191;-83
2021/04/17 00:55:40;;;;;;;10.23;5.62;;;;;;;3.14;91.77;100485.53;1639278;87;21606;-83
2021/04/17 00:58:07;;;;;;;7.55;5.47;;;;;;;3.14;91.69;100486.84;1638929;87;21162;-83
2021/04/17 01:00:37;;;;;;;10.98;6.25;;;;;;;3.14;91.82;100485.98;1635584;87;21563;-83
2021/04/17 01:03:25;;;;;;;10.30;5.03;;;;;;;3.18;91.85;100490.17;1638754;87;21207;-84
2021/04/17 01:05:56;;;;;;;11.08;6.05;;;;;;;3.17;91.73;100489.78;1639128;87;21131;-85
2021/04/17 01:09:00;;;;;;;12.47;6.90;;;;;;;3.17;91.76;100485.41;1632365;87;21189;-85
2021/04/17 01:11:37;;;;;;;9.73;5.58;;;;;;;3.18;91.71;100488.86;1627382;87;21655;-84
2021/04/17 01:14:04;;;;;;;12.60;5.62;;;;;;;3.18;91.70;100486.26;1627992;87;21232;-83
2021/04/17 01:16:31;;;;;;;8.18;5.90;;;;;;;3.17;91.74;100489.78;1632625;87;21599;-84
2021/04/17 01:18:58;;;;;;;10.70;5.80;;;;;;;3.16;91.73;100487.63;1632896;87;21166;-84
2021/04/17 01:21:25;;;;;;;12.15;6.60;;;;;;;3.17;91.75;100486.72;1636551;87;21756;-84
2021/04/17 01:23:56;;;;;;;9.75;6.55;;;;;;;3.15;91.67;100487.22;1618686;87;21135;-83
2021/04/17 01:26:27;;;;;;;9.50;6.25;;;;;;;3.15;91.67;100487.68;1635831;87;21688;-83
2021/04/17 01:28:56;;;;;;;14.13;6.33;;;;;;;3.15;91.67;100486.38;1632760;87;21167;-83
2021/04/17 01:31:32;;;;;;;9.83;6.05;;;;;;;3.12;91.67;100487.34;1627209;87;21145;-82
2021/04/17 01:34:02;;;;;;;10.43;6.33;;;;;;;3.14;91.85;100489.91;1628128;87;21307;-83
2021/04/17 01:36:31;;;;;;;12.58;6.40;;;;;;;3.14;91.91;100490.75;1625952;87;21160;-83
2021/04/17 01:39:02;;;;;;;12.43;6.83;;;;;;;3.15;91.86;100486.38;1634438;87;21557;-83
2021/04/17 01:41:35;;;;;;;13.18;6.90;;;;;;;3.16;91.91;100488.94;1627684;87;21190;-83
2021/04/17 01:44:03;;;;;;;;;;;;;;;3.16;91.85;100489.37;1638328;87;21134;-85
2021/04/17 01:46:33;;;;;;;13.48;6.45;;;;;;;3.15;91.88;100488.52;1636177;87;20209;-85
2021/04/17 01:49:03;;;;;;;10.93;6.55;;;;;;;3.14;91.99;100484.23;1631326;87;21124;-86
2021/04/17 01:51:32;;;;;;;14.20;7.12;;;;;;;3.12;92.04;100486.03;1638946;87;21215;-83
2021/04/17 01:54:02;;;;;;;12.90;7.53;;;;;;;3.10;91.99;100490.48;1639045;87;21139;-83
2021/04/17 01:56:31;;;;;;;14.53;7.58;;;;;;;3.10;92.12;100487.03;1639093;87;21202;-83
2021/04/17 01:58:59;;;;;;;14.53;7.92;;;;;;;3.07;92.17;100485.38;1639001;87;21186;-83
2021/04/17 02:01:25;;;;;;;9.75;7.00;;;;;;;3.06;92.23;100487.61;1634869;87;21183;-83
2021/04/17 02:03:52;;;;;;;11.68;6.90;;;;;;;3.05;92.31;100478.06;1636923;87;21191;-83
2021/04/17 02:06:17;;;;;;;17.92;8.60;;;;;;;3.04;92.37;100478.52;1639080;87;21171;-83
2021/04/17 02:08:44;;;;;;;14.10;8.10;;;;;;;3.05;92.42;100478.06;1638980;87;21313;-83
2021/04/17 02:11:10;;;;;;;12.58;7.35;;;;;;;3.05;92.42;100481.97;1639128;87;21133;-83
2021/04/17 02:13:39;;;;;;;13.13;7.33;;;;;;;3.04;92.46;100477.22;1638974;87;21147;-83
2021/04/17 02:16:16;;;;;;;14.73;7.37;;;;;;;3.05;92.52;100485.89;1614476;87;22071;-83
2021/04/17 02:19:03;;;;;;;17.23;8.48;;;;;;;3.05;92.53;100475.45;1638884;87;21139;-83
2021/04/17 02:21:36;;;;;;;14.55;7.35;;;;;;;3.04;92.51;100476.38;1585130;90;21762;-84
2021/04/17 02:24:05;;;;;;;15.48;7.65;;;;;;;3.04;92.63;100477.67;1585019;90;21165;-84
2021/04/17 02:26:31;;;;;;;14.90;7.72;;;;;;;3.03;92.73;100475.53;1588713;87;21629;-83
2021/04/17 02:28:58;;;;;;;19.12;10.65;;;;;;;3.03;92.72;100479.91;1638963;87;21181;-83
2021/04/17 02:31:26;;;;;;;15.48;8.48;;;;;;;3.04;92.77;100481.59;1636310;87;21185;-83
2021/04/17 02:33:53;;;;;;;18.27;7.83;;;;;;;3.02;92.76;100477.72;1629462;87;21214;-84
2021/04/17 02:36:19;;;;;;;13.90;7.35;;;;;;;3.02;92.75;100478.18;1627937;87;21561;-83
2021/04/17 02:38:45;;;;;;;10.93;7.45;;;;;;;3.01;92.76;100473.88;1628024;87;21324;-84
2021/04/17 02:41:13;;;;;;;18.92;9.25;;;;;;;3.00;92.82;100480.86;1627790;88;21581;-84
2021/04/17 02:43:43;;;;;;;18.35;9.73;;;;;;;3.01;92.87;100473.88;1623684;87;21210;-83
2021/04/17 02:46:10;;;;;;;16.85;8.70;;;;;;;2.99;92.88;100473.08;1602713;89;21176;-83
2021/04/17 02:48:37;;;;;;;15.43;7.85;;;;;;;3.01;92.99;100469.97;1616363;87;21120;-83
2021/04/17 02:51:04;;;;;;;16.75;8.08;;;;;;;3.01;93.05;100466.06;1638346;87;21345;-83
2021/04/17 02:53:30;;;;;;;15.88;8.40;;;;;;;3.02;93.04;100464.69;1631166;87;21178;-83
2021/04/17 02:55:57;;;;;;;16.93;9.18;;;;;;;3.03;92.99;100464.26;1636697;87;21143;-84
2021/04/17 02:58:24;;;;;;;17.52;8.83;;;;;;;3.05;93.06;100463.72;1627832;87;21300;-83
2021/04/17 03:00:50;;;;;;;13.32;7.95;;;;;;;3.03;92.99;100459.05;1636719;87;21205;-83
2021/04/17 03:03:16;;;;;;;14.68;8.53;;;;;;;3.02;93.01;100455.56;1635700;87;21209;-83
2021/04/17 03:05:42;;;;;;;14.80;8.45;;;;;;;3.00;92.97;100454.79;1630312;87;21685;-83
2021/04/17 03:08:10;;;;;;;14.28;7.97;;;;;;;2.99;93.01;100450.92;1627854;87;21193;-83
2021/04/17 03:10:37;;;;;;;16.48;8.10;;;;;;;2.98;93.10;100447.47;1631476;87;21151;-83
2021/04/17 03:13:04;;;;;;;15.60;8.93;;;;;;;2.98;93.13;100450.54;1628870;87;21305;-83
2021/04/17 03:15:31;;;;;;;10.48;7.45;;;;;;;2.97;93.19;100447.55;1632118;87;21183;-83
2021/04/17 03:17:58;;;;;;;13.98;8.38;;;;;;;2.96;93.24;100457.13;1633202;87;21554;-83
2021/04/17 03:20:24;;;;;;;16.17;9.10;;;;;;;2.96;93.27;100447.13;1634829;87;21294;-83
2021/04/17 03:22:51;;;;;;;14.83;8.48;;;;;;;2.95;93.30;100451.50;1636420;87;21147;-83
2021/04/17 03:25:18;;;;;;;14.65;7.50;;;;;;;2.94;93.32;100452.42;1636295;88;21160;-83
2021/04/17 03:27:45;;;;;;;12.98;8.15;;;;;;;2.96;93.38;100454.95;1636283;87;21180;-83
2021/04/17 03:30:16;;;;;;;10.10;6.85;;;;;;;2.97;93.36;100454.06;1633387;87;21221;-83
2021/04/17 03:32:42;;;;;;;14.07;7.37;;;;;;;2.97;93.38;100446.25;1636112;87;21602;-83
2021/04/17 03:35:11;;;;;;;11.97;7.40;;;;;;;2.97;93.42;100447.55;1636983;87;21317;-83
2021/04/17 03:37:39;;;;;;;12.00;6.72;;;;;;;2.95;93.40;100449.36;1636313;87;21189;-84
2021/04/17 03:40:08;;;;;;;10.98;7.87;;;;;;;2.94;93.41;100455.03;1639069;87;21206;-83
2021/04/17 03:42:34;;;;;;;10.90;7.33;;;;;;;2.91;93.39;100454.30;1638997;87;21179;-83
2021/04/17 03:45:00;;;;;;;13.25;7.37;;;;;;;2.88;93.42;100451.81;1637196;87;21150;-83
2021/04/17 03:47:26;;;;;;;11.03;6.75;;;;;;;2.88;93.53;100455.27;1636116;88;21328;-83
2021/04/17 03:49:53;;;;;;;12.65;7.42;;;;;;;2.87;93.58;100461.39;1633610;87;21159;-83
2021/04/17 03:52:18;;;;;;;11.35;8.33;;;;;;;2.88;93.60;100462.23;1630491;87;21179;-83
2021/04/17 03:54:44;;;;;;;11.33;7.92;;;;;;;2.88;93.64;100459.62;1628253;87;21218;-83
2021/04/17 03:57:11;;;;;;;14.70;7.17;;;;;;;2.88;93.69;100458.33;1628069;87;21178;-83
2021/04/17 03:59:36;;;;;;;13.58;8.25;;;;;;;2.90;93.69;100465.19;1628404;87;21139;-83
2021/04/17 04:02:03;;;;;;;11.10;7.00;;;;;;;2.91;93.68;100468.64;1636718;87;21568;-83
2021/04/17 04:04:29;;;;;;;12.28;6.97;;;;;;;2.92;93.64;100469.02;1636366;87;21223;-83
2021/04/17 04:06:55;;;;;;;12.43;7.75;;;;;;;2.93;93.57;100472.02;1636221;87;21716;-83
2021/04/17 04:09:21;;;;;;;10.32;6.95;;;;;;;2.94;93.58;100478.48;1636235;88;21586;-83
2021/04/17 04:11:47;;;;;;;14.15;7.83;;;;;;;2.96;93.60;100487.54;1636268;88;21183;-83
2021/04/17 04:14:13;;;;;;;11.88;7.62;;;;;;;2.95;93.51;100485.84;1636248;88;21172;-83
2021/04/17 04:16:39;;;;;;;16.42;8.20;;;;;;;2.95;93.60;100485.39;1636345;87;21602;-83
2021/04/17 04:19:05;;;;;;;12.18;6.95;;;;;;;2.98;93.60;100488.34;1637696;87;21185;-83
2021/04/17 04:21:31;;;;;;;11.43;6.83;;;;;;;2.97;93.48;100489.26;1634594;87;21187;-83
2021/04/17 04:23:57;;;;;;;17.62;9.10;;;;;;;2.96;93.47;100492.75;1639078;87;21160;-83
2021/04/17 04:26:23;;;;;;;14.30;7.42;;;;;;;2.96;93.49;100488.41;1639052;87;21269;-83
2021/04/17 04:28:49;;;;;;;11.97;8.40;;;;;;;2.96;93.54;100490.14;1639018;87;21148;-83
2021/04/17 04:31:15;;;;;;;18.45;8.13;;;;;;;2.98;93.53;100494.86;1639110;87;21270;-83
2021/04/17 04:33:41;;;;;;;12.50;7.45;;;;;;;2.98;93.57;100497.00;1639188;87;21782;-83
2021/04/17 04:36:07;;;;;;;13.10;8.38;;;;;;;2.98;93.45;100492.25;1637017;87;21171;-83
2021/04/17 04:38:33;;;;;;;13.43;7.87;;;;;;;2.99;93.65;100487.42;1632885;87;21147;-83
2021/04/17 04:40:59;;;;;;;13.20;7.50;;;;;;;3.00;93.55;100491.75;1638674;87;21200;-83
2021/04/17 04:43:26;;;;;;;23.32;9.45;;;;;;;3.00;93.56;100495.66;1638789;87;21641;-83
2021/04/17 04:45:52;;;;;;;13.18;8.88;;;;;;;3.00;93.52;100496.97;1636459;87;21746;-83
2021/04/17 04:48:18;;;;;;;13.80;8.58;;;;;;;2.99;93.44;100504.37;1633541;87;21167;-83
2021/04/17 04:50:44;;;;;;;14.20;8.20;;;;;;;2.99;93.48;100501.30;1638596;87;21143;-83
2021/04/17 04:53:09;;;;;;;16.70;8.95;;;;;;;3.00;93.48;100501.72;1630646;87;21766;-83
2021/04/17 04:55:35;;;;;;;11.53;8.33;;;;;;;3.00;93.48;100504.78;1630190;87;21143;-83
2021/04/17 04:58:02;;;;;;;18.27;8.23;;;;;;;3.00;93.56;100503.48;1634879;87;21823;-83
2021/04/17 05:00:28;;;;;;;14.18;8.95;;;;;;;3.00;93.54;100500.88;1628299;87;21171;-83
2021/04/17 05:02:54;;;;;;;12.98;8.65;;;;;;;2.98;93.56;100506.13;1627866;87;21278;-83
2021/04/17 05:05:20;;;;;;;14.58;8.98;;;;;;;2.97;93.62;100508.81;1626521;87;21200;-83
2021/04/17 05:07:46;;;;;;;14.73;8.38;;;;;;;2.95;93.58;100506.25;1637928;87;21270;-83
2021/04/17 05:10:12;;;;;;;12.40;7.80;;;;;;;2.94;93.71;100509.77;1630539;87;21293;-83
2021/04/17 05:12:38;;;;;;;13.00;9.35;;;;;;;2.95;93.78;100508.01;1638002;87;21175;-83
2021/04/17 05:15:06;;;;;;;16.25;9.05;;;;;;;2.94;93.78;100504.55;1639106;87;21586;-83
2021/04/17 05:17:32;;;;;;;15.30;9.53;;;;;;;2.96;93.85;100506.66;1633020;87;21187;-83
2021/04/17 05:19:58;;;;;;;16.12;8.93;;;;;;;2.96;93.85;100506.66;1627991;87;21167;-83
2021/04/17 05:22:24;;;;;;;16.17;9.60;;;;;;;2.98;93.89;100509.20;1626671;87;21223;-83
2021/04/17 05:24:51;;;;;;;13.20;8.03;;;;;;;2.97;93.84;100507.05;1637178;87;21692;-83
2021/04/17 05:27:18;;;;;;;19.82;9.15;;;;;;;2.99;93.92;100509.58;1639044;87;21147;-83
2021/04/17 05:29:44;;;;;;;15.13;10.80;;;;;;;3.00;93.97;100504.33;1639160;87;21197;-83
2021/04/17 05:32:10;;;;;;;13.78;8.65;;;;;;;3.02;93.93;100501.64;1634019;87;21127;-83
2021/04/17 05:34:36;;;;;;;17.95;10.72;;;;;;;3.04;93.98;100508.97;1633190;87;21701;-83
2021/04/17 05:37:02;;;;;;;16.40;9.85;;;;;;;3.04;93.93;100503.75;1636140;88;21136;-83
2021/04/17 05:39:28;;;;;;;13.83;8.90;;;;;;;3.06;93.98;100509.77;1635685;88;21188;-84
2021/04/17 05:41:54;;;;;;;16.42;9.85;;;;;;;3.03;93.94;100504.20;1635301;87;21191;-83
2021/04/17 05:44:21;;;;;;;16.95;10.48;;;;;;;3.05;93.94;100500.23;1620561;87;21561;-83
2021/04/17 05:46:47;;;;;;;14.50;9.35;;;;;;;3.05;94.04;100503.67;1629467;87;21192;-83
2021/04/17 05:49:13;;;;;;;15.25;10.32;;;;;;;3.07;94.07;100509.31;1628177;87;21578;-83
2021/04/17 05:51:42;;;;;;;17.50;10.10;;;;;;;3.08;94.17;100512.30;1631611;87;21111;-83
2021/04/17 05:54:09;;;;;;;14.25;10.48;;;;;;;3.08;94.10;100522.73;1634761;87;21171;-83
2021/04/17 05:56:36;;;;;;;15.50;10.32;;;;;;;3.09;94.21;100517.44;1629749;87;21158;-83
2021/04/17 05:59:03;;;;;;;17.20;10.50;;;;;;;3.10;94.19;100513.10;1636258;88;21135;-83
2021/04/17 06:01:29;;;;;;;19.32;9.65;;;;;;;3.12;94.22;100523.84;1636316;88;21178;-83
2021/04/17 06:03:55;;;;;;;16.65;10.50;;;;;;;3.14;94.26;100518.13;1636519;88;21285;-83
2021/04/17 06:06:20;;;;;;;16.40;10.25;;;;;;;3.17;94.21;100522.38;1632992;87;21815;-83
2021/04/17 06:08:46;;;;;;;19.98;10.68;;;;;;;3.17;94.18;100515.40;1635986;88;21689;-83
2021/04/17 06:11:13;;;;;;;16.40;11.70;;;;;;;3.20;94.26;100511.37;1635624;87;21262;-83
2021/04/17 06:13:39;;;;;;;17.23;11.93;;;;;;;3.22;94.32;100509.99;1611824;88;21183;-83
2021/04/17 06:16:06;;;;;;;16.12;10.72;;;;;;;3.24;94.23;100513.41;1636840;87;21293;-83
2021/04/17 06:18:33;;;;;;;19.00;9.53;;;;;;;3.24;94.18;100523.38;1634580;87;21154;-83
2021/04/17 06:20:59;;;;;;;15.78;9.63;;;;;;;3.23;94.15;100520.38;1627826;87;21167;-83
2021/04/17 06:23:25;;;;;;;15.75;10.40;;;;;;;3.25;94.29;100522.45;1627795;87;21221;-83
2021/04/17 06:25:51;;;;;;;15.40;10.05;;;;;;;3.27;94.34;100515.44;1625807;87;21728;-83
2021/04/17 06:28:18;;;;;;;14.78;9.70;;;;;;;3.29;94.23;100522.75;1629022;87;21115;-83
2021/04/17 06:30:45;;;;;;;19.23;10.58;;;;;;;3.31;94.21;100526.59;1630602;87;21198;-83
2021/04/17 06:33:11;;;;;;;16.02;9.75;;;;;;;3.34;94.35;100525.17;1627942;87;21167;-83
2021/04/17 06:35:38;;;;;;;17.73;11.08;;;;;;;3.34;94.22;100524.33;1627399;87;21124;-83
2021/04/17 06:38:08;;;;;;;18.15;9.78;;;;;;;3.37;94.28;100524.20;1595199;87;21333;-83
2021/04/17 06:40:34;;;;;;;16.60;10.20;;;;;;;3.39;94.19;100523.24;1631296;87;21183;-83
2021/04/17 06:43:03;;;;;;;16.25;10.65;;;;;;;3.40;94.11;100516.26;1619714;87;21210;-83
2021/04/17 06:45:36;;;;;;;16.12;8.85;;;;;;;3.41;94.16;100514.03;1635087;87;21141;-83
2021/04/17 06:48:06;;;;;;;16.40;10.95;;;;;;;3.44;94.23;100517.83;1628790;87;21163;-83
2021/04/17 06:50:35;;;;;;;13.40;10.20;;;;;;;3.45;94.14;100515.60;1626284;87;21155;-84
2021/04/17 06:53:06;;;;;;;19.05;9.90;;;;;;;3.47;94.13;100521.63;1624556;87;21146;-84
2021/04/17 06:55:32;;;;;;;16.52;10.10;;;;;;;3.47;94.07;100514.64;1636202;87;21178;-83
2021/04/17 06:58:00;;;;;;;20.32;11.57;;;;;;;3.50;94.30;100517.59;1636273;88;21568;-83
2021/04/17 07:00:26;;;;;;;15.28;10.32;;;;;;;3.52;94.08;100523.57;1621912;87;21658;-84
2021/04/17 07:02:52;;;;;;;14.73;10.40;;;;;;;3.52;94.07;100519.23;1622861;87;21139;-83
2021/04/17 07:05:19;;;;;;;16.23;10.10;;;;;;;3.53;94.06;100521.38;1630753;87;21591;-83
2021/04/17 07:07:45;;;;;;;23.70;12.15;;;;;;;3.55;94.16;100520.84;1610262;88;21392;-83
2021/04/17 07:10:12;;;;;;;20.45;10.55;;;;;;;3.57;94.20;100513.81;1610394;88;21193;-83
2021/04/17 07:12:39;;;;;;;17.80;10.05;;;;;;;3.62;94.26;100521.02;1616425;87;21155;-83
2021/04/17 07:15:09;;;;;;;21.27;10.38;;;;;;;3.62;94.11;100521.02;1623407;87;21184;-84
2021/04/17 07:17:37;;;;;;;16.73;9.73;;;;;;;3.61;94.06;100521.90;1630775;87;21154;-83
2021/04/17 07:20:13;;;;;;;18.25;10.53;;;;;;;3.63;94.24;100517.48;1631173;87;21211;-83
2021/04/17 07:22:42;;;;;;;16.37;10.38;;;;;;;3.67;94.37;100516.44;1622579;87;21212;-84
2021/04/17 07:25:13;;;;;;;16.40;10.72;;;;;;;3.70;94.32;100520.69;1602837;87;21177;-83
2021/04/17 07:27:47;;;;;;;16.60;9.60;;;;;;;3.71;94.27;100523.22;1621301;87;21189;-83
2021/04/17 07:30:23;;;;;;;16.60;9.60;;;;;;;3.72;94.25;100524.94;1626202;87;21767;-83
2021/04/17 07:33:14;;;;;;;17.12;10.75;;;;;;;3.72;94.13;100524.09;1621395;87;21161;-83
2021/04/17 07:35:46;;;;;;;20.72;11.48;;;;;;;3.74;94.16;100534.00;1623147;87;21185;-84
2021/04/17 07:38:25;;;;;;;15.78;9.95;;;;;;;3.75;94.20;100527.42;1629491;87;21175;-83
2021/04/17 07:41:20;;;;;;;16.60;9.98;;;;;;;3.78;94.35;100521.20;1599862;87;21146;-83
2021/04/17 07:44:02;;;;;;;17.05;11.57;;;;;;;3.83;94.21;100530.17;1636333;87;21253;-84
2021/04/17 07:46:41;;;;;;;18.37;11.68;;;;;;;3.82;94.13;100531.06;1627220;87;21167;-83
2021/04/17 07:49:21;;;;;;;22.20;12.13;;;;;;;3.83;94.24;100531.02;1633198;87;21161;-83
2021/04/17 07:52:01;;;;;;;19.23;11.35;;;;;;;3.85;94.26;100533.55;1630518;87;21140;-83
2021/04/17 07:54:29;;;;;;;17.07;10.75;;;;;;;3.86;94.25;100530.89;1608446;87;21504;-83
2021/04/17 07:56:56;;;;;;;16.62;9.25;;;;;;;3.88;94.27;100534.30;1621415;87;21146;-83
2021/04/17 07:59:24;;;;;;;24.57;13.18;;;;;;;3.92;94.30;100525.88;1626544;87;21131;-83
2021/04/17 08:01:52;;;;;;;23.92;12.60;;;;;;;3.94;94.29;100534.02;1628726;88;21203;-84
2021/04/17 08:04:28;;;;;;;34.50;21.05;;;;;;;3.96;94.14;100532.66;1630078;87;21193;-84
2021/04/17 08:06:56;;;;;;;38.65;25.35;;;;;;;3.97;94.14;100539.58;1625511;87;21578;-80
2021/04/17 08:09:25;;;;;;;39.48;25.17;;;;;;;4.01;94.44;100541.13;1636481;87;22336;-80
2021/04/17 08:11:55;;;;;;;31.73;18.20;;;;;;;4.05;94.23;100538.81;1627537;87;21558;-81
2021/04/17 08:14:23;;;;;;;35.20;24.57;;;;;;;4.05;94.12;100538.81;1620770;87;21151;-83
2021/04/17 08:16:50;;;;;;;30.72;18.37;;;;;;;4.07;94.00;100534.35;1632522;87;21167;-83
2021/04/17 08:19:17;;;;;;;26.62;16.93;;;;;;;4.09;93.95;100540.38;1629548;87;21135;-83
2021/04/17 08:21:45;;;;;;;44.77;27.42;;;;;;;4.11;93.94;100542.44;1624216;87;21151;-83
2021/04/17 08:24:12;;;;;;;31.07;20.48;;;;;;;4.12;93.90;100537.63;1624362;87;21166;-82
2021/04/17 08:26:39;;;;;;;54.53;28.70;;;;;;;4.15;93.83;100536.66;1622614;87;21244;-85
2021/04/17 08:29:05;;;;;;;94.00;52.08;;;;;;;4.17;93.76;100532.20;1618387;87;21174;-85
2021/04/17 08:31:38;;;;;;;55.50;34.50;;;;;;;4.17;93.84;100536.96;1626321;87;21178;-82
2021/04/17 08:34:20;;;;;;;59.08;38.33;;;;;;;4.23;93.94;100541.08;1625264;87;21155;-82
2021/04/17 08:36:53;;;;;;;36.15;22.75;;;;;;;4.26;93.71;100537.50;1617993;87;21195;-83
2021/04/17 08:39:37;;;;;;;;;;;;;;;4.30;93.89;100537.28;1624671;87;21188;-83
2021/04/17 08:42:10;;;;;;;19.32;12.25;;;;;;;4.25;93.72;100527.97;1612525;87;20195;-83
2021/04/17 08:44:42;;;;;;;;;;;;;;;4.34;93.73;100538.00;1620578;88;21100;-83
2021/04/17 08:47:11;;;;;;;21.77;13.70;;;;;;;4.34;93.46;100536.23;1610420;87;20160;-82
2021/04/17 08:49:41;;;;;;;24.92;14.50;;;;;;;4.36;93.62;100538.33;1609753;89;21150;-82
2021/04/17 08:52:25;;;;;;;21.15;14.25;;;;;;;4.36;93.47;100530.95;1609544;88;21593;-82
2021/04/17 08:55:05;;;;;;;24.57;14.45;;;;;;;4.39;93.44;100532.97;1635390;87;21580;-83
2021/04/17 08:57:31;;;;;;;20.25;10.72;;;;;;;4.39;93.39;100530.36;1639439;87;21197;-83
2021/04/17 09:00:00;;;;;;;21.68;13.43;;;;;;;4.41;93.46;100525.93;1612060;87;21185;-83
2021/04/17 09:02:28;;;;;;;18.15;12.53;;;;;;;4.43;93.17;100534.99;1609088;89;21182;-83
2021/04/17 09:05:13;;;;;;;18.82;10.80;;;;;;;4.44;93.34;100529.72;1609321;88;21216;-83
2021/04/17 09:07:44;;;;;;;16.80;11.97;;;;;;;4.44;93.06;100531.02;1609220;88;21236;-82
2021/04/17 09:10:34;;;;;;;20.17;12.43;;;;;;;4.43;92.98;100534.53;1609390;88;21781;-82
2021/04/17 09:13:20;;;;;;;15.05;11.22;;;;;;;4.45;92.89;100530.56;1609086;89;21194;-82
2021/04/17 09:16:04;;;;;;;16.52;9.35;;;;;;;4.46;92.96;100529.63;1608010;88;21162;-82
2021/04/17 09:18:38;;;;;;;18.20;10.68;;;;;;;4.50;93.09;100532.95;1607947;89;21238;-82
2021/04/17 09:21:15;;;;;;;13.10;9.88;;;;;;;4.54;93.07;100524.05;1609054;88;21124;-81
2021/04/17 09:23:50;;;;;;;18.77;16.05;;;;;;;4.57;93.25;100523.45;1618923;88;21542;-83
2021/04/17 09:26:36;;;;;;;19.07;12.23;;;;;;;4.60;93.14;100523.33;1606850;89;21201;-83
2021/04/17 09:29:21;;;;;;;16.30;10.85;;;;;;;4.60;92.68;100523.33;1611514;88;21131;-83
2021/04/17 09:31:50;;;;;;;19.50;12.47;;;;;;;4.57;92.30;100526.07;1603706;89;21160;-84
2021/04/17 09:34:17;;;;;;;16.57;10.90;;;;;;;4.57;92.76;100524.77;1596630;89;21823;-83
2021/04/17 09:36:45;;;;;;;21.05;11.48;;;;;;;4.59;92.96;100520.80;1604150;89;21204;-83
2021/04/17 09:39:30;;;;;;;17.75;9.90;;;;;;;4.63;92.90;100531.49;1606989;89;21204;-84
2021/04/17 09:42:00;;;;;;;19.62;11.08;;;;;;;4.65;92.95;100525.75;1607872;88;21750;-83
2021/04/17 09:44:41;;;;;;;18.52;11.20;;;;;;;4.67;92.73;100530.44;1615053;88;21162;-84
2021/04/17 09:47:14;;;;;;;19.48;11.12;;;;;;;4.67;92.59;100523.47;1611985;88;21131;-84
2021/04/17 09:49:45;;;;;;;16.95;10.50;;;;;;;4.65;92.41;100520.52;1611498;88;21158;-84
2021/04/17 09:52:18;;;;;;;17.65;11.68;;;;;;;4.63;92.55;100519.27;1620673;88;21597;-84
2021/04/17 09:54:41;;;;;;;16.30;10.10;;;;;;;4.66;92.71;100524.83;1605439;88;21122;-84
2021/04/17 09:57:08;;;;;;;32.95;20.92;;;;;;;4.68;92.83;100526.45;1620206;88;21163;-84
2021/04/17 09:59:35;;;;;;;21.87;14.63;;;;;;;4.72;92.51;100526.33;1616584;88;21123;-86
2021/04/17 10:02:03;;;;;;;26.33;16.15;;;;;;;4.70;92.46;100524.64;1617600;87;21616;-84
2021/04/17 10:04:57;;;;;;;18.67;11.55;;;;;;;4.72;92.57;100518.02;1614751;87;21107;-85
2021/04/17 10:07:21;;;;;;;46.95;26.90;;;;;;;4.72;92.16;100515.87;1619245;88;21158;-84
2021/04/17 10:10:09;;;;;;;26.45;14.83;;;;;;;4.70;92.38;100515.92;1617139;88;21301;-84
2021/04/17 10:12:51;;;;;;;28.85;14.58;;;;;;;4.69;92.48;100514.23;1615067;88;21159;-85
2021/04/17 10:15:22;;;;;;;25.08;14.87;;;;;;;4.73;92.80;100510.55;1609138;88;21190;-83
2021/04/17 10:17:51;;;;;;;16.12;10.78;;;;;;;4.76;92.31;100509.11;1616135;87;21118;-84
2021/04/17 10:20:18;;;;;;;20.97;14.98;;;;;;;4.79;92.55;100508.13;1615757;87;21309;-84
2021/04/17 10:23:18;;;;;;;30.25;17.00;;;;;;;4.82;92.69;100503.61;1617931;88;21596;-83
2021/04/17 10:25:46;;;;;;;15.03;11.48;;;;;;;4.88;92.57;100501.17;1579552;89;21535;-82
2021/04/17 10:28:24;;;;;;;20.57;11.50;;;;;;;4.94;92.49;100506.13;1615334;88;21553;-82
2021/04/17 10:31:08;;;;;;;15.05;9.95;;;;;;;4.96;92.27;100507.34;1571140;91;21631;-83
2021/04/17 10:33:31;;;;;;;17.92;10.20;;;;;;;4.97;92.17;100509.03;1570937;91;21699;-83
2021/04/17 10:36:02;;;;;;;19.00;11.63;;;;;;;5.01;92.36;100506.69;1586765;90;21340;-82
2021/04/17 10:38:39;;;;;;;15.45;10.03;;;;;;;5.06;92.62;100504.22;1586688;90;21197;-83
2021/04/17 10:41:04;;;;;;;19.48;11.35;;;;;;;5.09;92.00;100503.24;1586639;90;21308;-82
2021/04/17 10:43:31;;;;;;;17.27;9.85;;;;;;;5.11;92.09;100500.11;1585896;90;22621;-82
2021/04/17 10:46:03;;;;;;;18.12;10.15;;;;;;;5.20;92.36;100502.73;1585755;89;21801;-82
2021/04/17 10:48:42;;;;;;;16.45;11.38;;;;;;;5.26;92.47;100501.13;1589227;89;21198;-82
2021/04/17 10:51:15;;;;;;;17.00;10.05;;;;;;;5.33;92.42;100506.45;1583049;89;21208;-83
2021/04/17 10:53:47;;;;;;;14.55;9.05;;;;;;;5.35;91.34;100505.46;1588910;89;21646;-83
2021/04/17 10:56:21;;;;;;;19.73;13.68;;;;;;;5.35;91.39;100504.63;1593104;89;21158;-83
2021/04/17 10:59:03;;;;;;;28.52;15.23;;;;;;;5.38;91.48;100501.86;1592753;89;21699;-83
2021/04/17 11:01:37;;;;;;;24.20;14.33;;;;;;;5.39;91.54;100504.85;1587404;89;21194;-82
2021/04/17 11:04:04;;;;;;;23.67;13.93;;;;;;;5.43;91.75;100503.80;1586395;89;21136;-82
2021/04/17 11:06:35;;;;;;;20.97;13.50;;;;;;;5.45;91.27;100501.10;1586067;89;21233;-83
2021/04/17 11:09:12;;;;;;;20.32;13.80;;;;;;;5.43;91.16;100499.88;1586990;90;21155;-82
2021/04/17 11:11:53;;;;;;;19.82;11.97;;;;;;;5.44;91.06;100502.03;1585566;90;21178;-82
2021/04/17 11:14:23;;;;;;;21.10;12.78;;;;;;;5.47;91.37;100500.58;1584762;90;21375;-81
2021/04/17 11:16:51;;;;;;;23.20;14.60;;;;;;;5.55;91.79;100497.95;1590527;89;21205;-81
2021/04/17 11:19:31;;;;;;;18.37;10.35;;;;;;;5.60;91.42;100501.20;1590245;89;21197;-82
2021/04/17 11:22:13;;;;;;;17.75;10.68;;;;;;;5.62;90.73;100502.42;1605636;88;21618;-82
2021/04/17 11:24:58;;;;;;;24.07;11.75;;;;;;;5.60;90.68;100499.05;1595531;88;21227;-81
2021/04/17 11:27:26;;;;;;;23.57;12.07;;;;;;;5.62;90.90;100498.03;1567345;90;21218;-81
2021/04/17 11:29:53;;;;;;;21.87;14.15;;;;;;;5.67;90.86;100495.67;1591913;89;21155;-82
2021/04/17 11:32:20;;;;;;;18.00;11.73;;;;;;;5.70;90.57;100494.21;1561811;90;21636;-81
2021/04/17 11:34:47;;;;;;;20.72;12.20;;;;;;;5.69;90.72;100501.19;1562823;90;21775;-81
2021/04/17 11:37:14;;;;;;;23.77;11.73;;;;;;;5.71;90.76;100497.20;1562249;90;21182;-82